Home > Products > Valid Products > TAF

000
FTUS45 KGGW 022300
TAFGDV
TAF
KGDV 022321Z 0300/0324 VRB05KT P6SM FEW100
     FM032100 30014KT P6SM SCT130
      AMD LTD TO CLD VIS AND WIND=



000
FTUS45 KGGW 022300
TAFSDY
TAF
KSDY 022321Z 0300/0324 VRB05KT P6SM SCT180
     FM031800 27013KT P6SM VCSH SCT120
      AMD LTD TO CLD VIS AND WIND=



000
FTUS45 KGGW 022300
TAFGGW
TAF
KGGW 022321Z 0300/0324 VRB04KT P6SM SCT180
     FM030600 10008KT P6SM SCT090
     FM031500 00000KT P6SM BKN100
     FM031800 29013KT P6SM VCSH BKN100=



000
FTUS45 KGGW 022300
TAFOLF
TAF
KOLF 022321Z 0300/0324 VRB05KT P6SM SCT170
     FM031200 VRB06KT P6SM BKN120
     FM031800 28014KT P6SM VCSH SCT110=



000
FTUS45 KGGW 022300
TAFGDV
TAF
KGDV 022321Z 0300/0324 VRB05KT P6SM FEW100
     FM032100 30014KT P6SM SCT130
      AMD LTD TO CLD VIS AND WIND=



000
FTUS45 KGGW 022300
TAFOLF
TAF
KOLF 022321Z 0300/0324 VRB05KT P6SM SCT170
     FM031200 VRB06KT P6SM BKN120
     FM031800 28014KT P6SM VCSH SCT110=



000
FTUS45 KGGW 021700
TAFOLF
TAF
KOLF 021720Z 0218/0318 26010KT P6SM SCT160
     FM030300 VRB03KT P6SM SCT170=



000
FTUS45 KGGW 021700
TAFGDV
TAF
KGDV 021720Z 0218/0318 26012KT P6SM SCT160
     FM030300 VRB06KT P6SM FEW130
      AMD LTD TO CLD VIS AND WIND=



000
FTUS45 KGGW 021700
TAFGDV
TAF
KGDV 021720Z 0218/0318 26012KT P6SM SCT160
     FM030300 VRB06KT P6SM FEW130
      AMD LTD TO CLD VIS AND WIND=



000
FTUS45 KGGW 021700
TAFGGW
TAF
KGGW 021720Z 0218/0318 27010KT P6SM BKN140
     FM030300 VRB04KT P6SM SCT090
     FM031200 10007KT P6SM BKN120=



000
FTUS45 KGGW 021700
TAFSDY
TAF
KSDY 021720Z 0218/0318 27013KT P6SM SCT160
     FM030300 VRB03KT P6SM SCT180
      AMD LTD TO CLD VIS AND WIND=



000
FTUS45 KGGW 021700
TAFOLF
TAF
KOLF 021720Z 0218/0318 26010KT P6SM SCT160
     FM030300 VRB03KT P6SM SCT170=



000
FTUS45 KGGW 021100
TAFGDV
TAF
KGDV 021123Z 0212/0312 VRB03KT P6SM SCT200
     FM021500 27010KT P6SM SCT080
     FM030100 VRB05KT P6SM SCT080
      AMD LTD TO CLD VIS AND WIND=



000
FTUS45 KGGW 021100
TAFOLF
TAF
KOLF 021123Z 0212/0312 25006KT P6SM SCT200
     FM021800 26009KT P6SM SCT100
     FM030100 VRB05KT P6SM BKN080=



000
FTUS45 KGGW 021100
TAFSDY
TAF
KSDY 021123Z 0212/0312 VRB05KT P6SM SCT150
     FM021400 26009KT P6SM SCT200
     FM030200 VRB05KT P6SM SCT080
      AMD LTD TO CLD VIS AND WIND=



000
FTUS45 KGGW 021100
TAFGDV
TAF
KGDV 021123Z 0212/0312 VRB03KT P6SM SCT200
     FM021500 27010KT P6SM SCT080
     FM030100 VRB05KT P6SM SCT080
      AMD LTD TO CLD VIS AND WIND=



000
FTUS45 KGGW 021100
TAFOLF
TAF
KOLF 021123Z 0212/0312 25006KT P6SM SCT200
     FM021800 26009KT P6SM SCT100
     FM030100 VRB05KT P6SM BKN080=



000
FTUS45 KGGW 021100
TAFGGW
TAF
KGGW 021123Z 0212/0312 27006KT P6SM SCT200
     FM021800 27011KT P6SM SCT140
     FM030100 10008KT P6SM BKN080=



000
FTUS45 KGGW 020500
TAFSDY
TAF
KSDY 020520Z 0206/0306 VRB05KT P6SM BKN120
     FM021200 25009KT P6SM SCT080
      AMD LTD TO CLD VIS AND WIND=



000
FTUS45 KGGW 020500
TAFOLF
TAF
KOLF 020520Z 0206/0306 VRB04KT P6SM BKN120
     FM021500 26009KT P6SM SCT100=



000
FTUS45 KGGW 020500
TAFGDV
TAF
KGDV 020520Z 0206/0306 VRB03KT P6SM SCT120
     FM021500 27010KT P6SM SCT080
      AMD LTD TO CLD VIS AND WIND=



000
FTUS45 KGGW 020500
TAFGGW
TAF
KGGW 020520Z 0206/0306 19008KT P6SM BKN150
     FM021100 VRB05KT P6SM SCT080
     FM021800 27010KT P6SM SCT140=



000
FTUS45 KGGW 020500
TAFOLF
TAF
KOLF 020520Z 0206/0306 VRB04KT P6SM BKN120
     FM021500 26009KT P6SM SCT100=



000
FTUS45 KGGW 020500
TAFGDV
TAF
KGDV 020520Z 0206/0306 VRB03KT P6SM SCT120
     FM021500 27010KT P6SM SCT080
      AMD LTD TO CLD VIS AND WIND=



000
FTUS45 KGGW 012300
TAFOLF
TAF
KOLF 012320Z 0200/0224 26010KT P6SM VCSH BKN070
     FM020300 VRB04KT P6SM SCT070
     FM021500 26009KT P6SM SCT100=



000
FTUS45 KGGW 012300
TAFGDV
TAF
KGDV 012320Z 0200/0224 26009KT P6SM VCSH BKN080
     FM020300 VRB05KT P6SM SCT080
     FM021200 27010KT P6SM SCT080
      AMD LTD TO CLD VIS AND WIND=



000
FTUS45 KGGW 012300
TAFGDV
TAF
KGDV 012320Z 0200/0224 26009KT P6SM VCSH BKN080
     FM020300 VRB05KT P6SM SCT080
     FM021200 27010KT P6SM SCT080
      AMD LTD TO CLD VIS AND WIND=



000
FTUS45 KGGW 012300
TAFSDY
TAF
KSDY 012320Z 0200/0224 32010KT P6SM VCSH BKN080
     FM020300 VRB05KT P6SM SCT080
     FM021200 25009KT P6SM SCT080
      AMD LTD TO CLD VIS AND WIND=



000
FTUS45 KGGW 012300
TAFOLF
TAF
KOLF 012320Z 0200/0224 26010KT P6SM VCSH BKN070
     FM020300 VRB04KT P6SM SCT070
     FM021500 26009KT P6SM SCT100=



000
FTUS45 KGGW 012300
TAFGGW
TAF
KGGW 012320Z 0200/0224 28010KT P6SM VCSH BKN080
     FM020300 VRB05KT P6SM SCT080
     FM021800 27010KT P6SM SCT140=



000
FTUS45 KGGW 011700
TAFSDY
TAF
KSDY 011720Z 0118/0218 29008KT P6SM BKN060
     FM020300 25005KT P6SM SCT250
     FM020800 25007KT P6SM SCT080
     FM021300 27007KT P6SM SCT250
      AMD LTD TO CLD VIS AND WIND=



000
FTUS45 KGGW 011700
TAFGGW
TAF
KGGW 011720Z 0118/0218 27008KT P6SM BKN060
     FM020200 20006KT P6SM SCT250
     FM020600 21008KT P6SM BKN080
     FM021200 27008KT P6SM SCT250=



000
FTUS45 KGGW 011700
TAFGDV
TAF
KGDV 011720Z 0118/0218 29010KT P6SM BKN060 BKN120
     FM020300 25006KT P6SM SCT250
     FM020900 24007KT P6SM SCT080
     FM021300 27010KT P6SM SCT250
      AMD LTD TO CLD VIS AND WIND=



000
FTUS45 KGGW 011700
TAFOLF
TAF
KOLF 011720Z 0118/0218 27008KT P6SM BKN060
     FM020200 26005KT P6SM SCT250
     FM020600 26005KT P6SM BKN080
     FM021200 27008KT P6SM SCT250=



000
FTUS45 KGGW 011700
TAFGDV
TAF
KGDV 011720Z 0118/0218 29010KT P6SM BKN060 BKN120
     FM020300 25006KT P6SM SCT250
     FM020900 24007KT P6SM SCT080
     FM021300 27010KT P6SM SCT250
      AMD LTD TO CLD VIS AND WIND=



000
FTUS45 KGGW 011700
TAFOLF
TAF
KOLF 011720Z 0118/0218 27008KT P6SM BKN060
     FM020200 26005KT P6SM SCT250
     FM020600 26005KT P6SM BKN080
     FM021200 27008KT P6SM SCT250=



000
FTUS45 KGGW 011100
TAFOLF
TAF
KOLF 011131Z 0112/0212 VRB03KT P6SM SCT080
     FM011500 27009KT P6SM BKN110
     FM020400 25005KT P6SM SCT250=



000
FTUS45 KGGW 011100
TAFSDY
TAF
KSDY 011131Z 0112/0212 VRB06KT P6SM BKN120
     FM011600 29009KT P6SM BKN070
     FM020300 VRB04KT P6SM SKC
      AMD LTD TO CLD VIS AND WIND=



000
FTUS45 KGGW 011100
TAFGDV
TAF
KGDV 011131Z 0112/0212 31007KT P6SM BKN120
     FM011900 29011KT P6SM BKN080
     FM020300 24006KT P6SM SCT250
      AMD LTD TO CLD VIS AND WIND=



000
FTUS45 KGGW 011100
TAFGGW
TAF
KGGW 011131Z 0112/0212 VRB04KT P6SM BKN110
     FM011500 27008KT P6SM SCT080
     FM020400 20006KT P6SM SCT250=



000
FTUS45 KGGW 011100
TAFOLF
TAF
KOLF 011131Z 0112/0212 VRB03KT P6SM SCT080
     FM011500 27009KT P6SM BKN110
     FM020400 25005KT P6SM SCT250=



000
FTUS45 KGGW 011100
TAFGDV
TAF
KGDV 011131Z 0112/0212 31007KT P6SM BKN120
     FM011900 29011KT P6SM BKN080
     FM020300 24006KT P6SM SCT250
      AMD LTD TO CLD VIS AND WIND=



000
FTUS45 KGGW 010500
TAFGDV
TAF
KGDV 010520Z 0106/0206 VRB06KT P6SM SCT080
     FM012100 29011KT P6SM BKN080
      AMD LTD TO CLD VIS AND WIND=



000
FTUS45 KGGW 010500
TAFSDY
TAF
KSDY 010520Z 0106/0206 VRB06KT P6SM SCT080
     FM011800 29009KT P6SM BKN070
      AMD LTD TO CLD VIS AND WIND=



000
FTUS45 KGGW 010500
TAFOLF
TAF
KOLF 010520Z 0106/0206 VRB04KT P6SM SCT080
     FM010900 VRB03KT P6SM BCFG SCT080
     FM011800 27009KT P6SM SCT110=



000
FTUS45 KGGW 010500
TAFGGW
TAF
KGGW 010520Z 0106/0206 06009KT P6SM SCT080
     FM011100 VRB04KT P6SM BCFG BKN110
     FM011800 27008KT P6SM SCT080=



000
FTUS45 KGGW 010500
TAFOLF
TAF
KOLF 010520Z 0106/0206 VRB04KT P6SM SCT080
     FM010900 VRB03KT P6SM BCFG SCT080
     FM011800 27009KT P6SM SCT110=



000
FTUS45 KGGW 010500
TAFGDV
TAF
KGDV 010520Z 0106/0206 VRB06KT P6SM SCT080
     FM012100 29011KT P6SM BKN080
      AMD LTD TO CLD VIS AND WIND=



000
FTUS45 KGGW 312300
TAFGGW
TAF
KGGW 312322Z 0100/0124 31012G21KT P6SM SCT100
     FM010300 VRB06KT P6SM SCT080
     FM011000 VRB04KT P6SM BCFG BKN110
     FM011800 27008KT P6SM SCT080=



000
FTUS45 KGGW 312300
TAFGDV
TAF
KGDV 312322Z 0100/0124 30010G20KT P6SM SCT080
     FM011200 VRB06KT P6SM BKN080
     FM012100 29011KT P6SM BKN080
      AMD LTD TO CLD VIS AND WIND=



000
FTUS45 KGGW 312300
TAFOLF
TAF
KOLF 312322Z 0100/0124 29010G20KT P6SM SCT080
     FM010300 VRB04KT P6SM SCT080
     FM010900 VRB03KT P6SM BCFG SCT080
     FM011800 27009KT P6SM SCT110=



000
FTUS45 KGGW 312300
TAFSDY
TAF
KSDY 312322Z 0100/0124 30010G20KT P6SM SCT080
     FM010300 VRB06KT P6SM SCT080
     FM011800 29009KT P6SM BKN070
      AMD LTD TO CLD VIS AND WIND=



000
FTUS45 KGGW 312300
TAFOLF
TAF
KOLF 312322Z 0100/0124 29010G20KT P6SM SCT080
     FM010300 VRB04KT P6SM SCT080
     FM010900 VRB03KT P6SM BCFG SCT080
     FM011800 27009KT P6SM SCT110=



000
FTUS45 KGGW 312300
TAFGDV
TAF
KGDV 312322Z 0100/0124 30010G20KT P6SM SCT080
     FM011200 VRB06KT P6SM BKN080
     FM012100 29011KT P6SM BKN080
      AMD LTD TO CLD VIS AND WIND=



000
FTUS45 KGGW 311700
TAFGDV
TAF
KGDV 311729Z 3118/0118 31010KT P6SM FEW050 SCT090 BKN200
      AMD LTD TO CLD VIS AND WIND=



000
FTUS45 KGGW 311700
TAFOLF
TAF
KOLF 311729Z 3118/0118 30008KT P6SM SCT100 BKN200
     FM010300 VRB03KT P6SM SCT100=



000
FTUS45 KGGW 311700
TAFSDY
TAF
KSDY 311729Z 3118/0118 32007KT P6SM SCT100 BKN200
      AMD LTD TO CLD VIS AND WIND=



000
FTUS45 KGGW 311700
TAFGGW
TAF
KGGW 311729Z 3118/0118 30010KT P6SM SCT100 BKN200
     FM010300 VRB06KT P6SM SCT100=



000
FTUS45 KGGW 311700
TAFOLF
TAF
KOLF 311729Z 3118/0118 30008KT P6SM SCT100 BKN200
     FM010300 VRB03KT P6SM SCT100=



000
FTUS45 KGGW 311700
TAFGDV
TAF
KGDV 311729Z 3118/0118 31010KT P6SM FEW050 SCT090 BKN200
      AMD LTD TO CLD VIS AND WIND=



000
FTUS45 KGGW 311500 AAA
TAFGDV
TAF AMD
KGDV 311530Z 3116/0112 32011G20KT P6SM VCTS SCT035 OVC050CB
      TEMPO 3116/3117 3SM -TSRA BKN025CB
     FM311800 31010KT P6SM SCT050 SCT090 BKN250
      AMD LTD TO CLD VIS AND WIND=



000
FTUS45 KGGW 311500 AAA
TAFGDV
TAF AMD
KGDV 311530Z 3116/0112 32011G20KT P6SM VCTS SCT035 OVC050CB
      TEMPO 3116/3117 3SM -TSRA BKN025CB
     FM311800 31010KT P6SM SCT050 SCT090 BKN250
      AMD LTD TO CLD VIS AND WIND=



000
FTUS45 KGGW 311100
TAFSDY
TAF
KSDY 311120Z 3112/0112 VRB03KT P6SM BKN110
      TEMPO 3112/3113 1/2SM FG OVC002
     FM312100 32008KT 6SM -TSRA BKN050CB BKN100
     FM010300 30009KT P6SM BKN100
      AMD LTD TO CLD VIS AND WIND=



000
FTUS45 KGGW 311100
TAFGGW
TAF
KGGW 311120Z 3112/0112 VRB04KT P6SM BKN120
     FM311500 VRB03KT P6SM SCT100
     FM312100 29011KT P6SM VCTS SCT050CB BKN080
     FM010300 VRB06KT P6SM BKN100=



000
FTUS45 KGGW 311100
TAFGDV
TAF
KGDV 311120Z 3112/0112 VRB05KT P6SM BKN120
     FM311800 29008KT P6SM -SHRA BKN080
     FM312100 30009KT 6SM -TSRA BKN050CB BKN100
     FM010300 32008KT P6SM BKN100
      AMD LTD TO CLD VIS AND WIND=



000
FTUS45 KGGW 311100
TAFOLF
TAF
KOLF 311120Z 3112/0112 00000KT P6SM BKN110
     FM311800 30008KT P6SM SCT110
     FM312100 28011KT P6SM VCTS SCT080CB
     FM010300 VRB03KT P6SM BKN100=



000
FTUS45 KGGW 311100
TAFOLF
TAF
KOLF 311120Z 3112/0112 00000KT P6SM BKN110
     FM311800 30008KT P6SM SCT110
     FM312100 28011KT P6SM VCTS SCT080CB
     FM010300 VRB03KT P6SM BKN100=



000
FTUS45 KGGW 311100
TAFGDV
TAF
KGDV 311120Z 3112/0112 VRB05KT P6SM BKN120
     FM311800 29008KT P6SM -SHRA BKN080
     FM312100 30009KT 6SM -TSRA BKN050CB BKN100
     FM010300 32008KT P6SM BKN100
      AMD LTD TO CLD VIS AND WIND=



000
FTUS45 KGGW 310800 AAA
TAFGDV
TAF AMD
KGDV 310841Z 3109/0106 VRB05KT P6SM BKN120
      TEMPO 3109/3113 1SM BR OVC001
     FM311800 29008KT P6SM -SHRA BKN080
     FM312100 30009KT 6SM -TSRA BKN050CB BKN100
     FM010300 32008KT P6SM VCTS BKN060CB
      AMD LTD TO CLD VIS AND WIND=



000
FTUS45 KGGW 310800 AAA
TAFGDV
TAF AMD
KGDV 310841Z 3109/0106 VRB05KT P6SM BKN120
      TEMPO 3109/3113 1SM BR OVC001
     FM311800 29008KT P6SM -SHRA BKN080
     FM312100 30009KT 6SM -TSRA BKN050CB BKN100
     FM010300 32008KT P6SM VCTS BKN060CB
      AMD LTD TO CLD VIS AND WIND=



000
FTUS45 KGGW 310800 AAA
TAFSDY
TAF AMD
KSDY 310840Z 3109/0106 VRB03KT P6SM BKN110
      TEMPO 3109/3113 2SM BR OVC002
     FM312100 32008KT 6SM -TSRA BKN050CB BKN100
     FM010300 30009KT P6SM VCTS BKN060CB
      AMD LTD TO CLD VIS AND WIND=



000
FTUS45 KGGW 310800 AAA
TAFOLF
TAF AMD
KOLF 310826Z 3108/0106 00000KT P6SM BKN110
      TEMPO 3109/3113 2SM BR OVC002
     FM311800 30008KT P6SM SCT110
     FM312100 28011KT P6SM VCTS SCT080CB
     FM010300 VRB03KT P6SM BKN100=



000
FTUS45 KGGW 310800 AAA
TAFGGW
TAF AMD
KGGW 310824Z 3108/0106 VRB04KT P6SM BKN120
      TEMPO 3108/3112 2SM BR SCT002
     FM311500 VRB03KT P6SM SCT100
     FM312100 29011KT P6SM VCTS SCT050CB BKN080
     FM010300 VRB06KT P6SM BKN100=



000
FTUS45 KGGW 310500
TAFOLF
TAF
KOLF 310520Z 3106/0106 00000KT P6SM BKN110
     FM311800 30008KT P6SM SCT110
     FM312100 28011KT P6SM VCTS SCT080CB
     FM010300 VRB03KT P6SM BKN100=



000
FTUS45 KGGW 310500
TAFGDV
TAF
KGDV 310520Z 3106/0106 VRB05KT P6SM BKN120
     FM311800 29008KT P6SM -SHRA BKN080
     FM312100 30009KT 6SM -TSRA BKN050CB BKN100
     FM010300 32008KT P6SM VCTS BKN060CB
      AMD LTD TO CLD VIS AND WIND=



000
FTUS45 KGGW 310500
TAFGDV
TAF
KGDV 310520Z 3106/0106 VRB05KT P6SM BKN120
     FM311800 29008KT P6SM -SHRA BKN080
     FM312100 30009KT 6SM -TSRA BKN050CB BKN100
     FM010300 32008KT P6SM VCTS BKN060CB
      AMD LTD TO CLD VIS AND WIND=



000
FTUS45 KGGW 310500
TAFGGW
TAF
KGGW 310520Z 3106/0106 VRB04KT P6SM BKN120
     FM311500 VRB03KT P6SM SCT100
     FM312100 29011KT P6SM VCTS SCT050CB BKN080
     FM010300 VRB06KT P6SM BKN100=



000
FTUS45 KGGW 310500
TAFOLF
TAF
KOLF 310520Z 3106/0106 00000KT P6SM BKN110
     FM311800 30008KT P6SM SCT110
     FM312100 28011KT P6SM VCTS SCT080CB
     FM010300 VRB03KT P6SM BKN100=



000
FTUS45 KGGW 310500
TAFSDY
TAF
KSDY 310520Z 3106/0106 VRB03KT P6SM BKN110
     FM312100 32008KT 6SM -TSRA BKN050CB BKN100
     FM010300 30009KT P6SM VCTS BKN060CB
      AMD LTD TO CLD VIS AND WIND=



    US Dept of Commerce
    National Oceanic and Atmospheric Administration
    National Weather Service
    1325 East West Highway
    Silver Spring, MD 20910
    Page Author: NWS Internet Services Team
Disclaimer
Information Quality
Credits
Glossary
Privacy Policy
Freedom of Information Act (FOIA)
About Us
Career Opportunities